Time;durP1;ratioP1;P1;durP2;ratioP2;P2;SDS_P1;SDS_P2;PMS_P1;PMS_P2;Temp;Humidity;BMP_temperature;BMP_pressure;BME280_temperature;BME280_humidity;BME280_pressure;Samples;Min_cycle;Max_cycle;Signal;HPM_P1;HPM_P2
2022/04/27 00:02:01;;;;;;;0.60;0.60;;;7.90;89.50;;;;;;4978331;28;20207;-64
2022/04/27 00:04:28;;;;;;;0.97;0.47;;;7.80;90.30;;;;;;4978162;28;20196;-64
2022/04/27 00:06:53;;;;;;;1.37;0.73;;;7.80;90.30;;;;;;4977970;28;20433;-64
2022/04/27 00:09:19;;;;;;;0.70;0.60;;;7.80;90.30;;;;;;4977636;28;20446;-63
2022/04/27 00:11:45;;;;;;;1.13;0.70;;;7.80;89.90;;;;;;4977987;28;20180;-64
2022/04/27 00:14:10;;;;;;;1.00;0.80;;;7.80;90.60;;;;;;4977636;28;20301;-64
2022/04/27 00:16:36;;;;;;;1.27;0.70;;;7.80;90.40;;;;;;4978230;28;20216;-64
2022/04/27 00:19:02;;;;;;;0.77;0.67;;;7.80;90.30;;;;;;4977842;28;20188;-64
2022/04/27 00:21:27;;;;;;;4.40;0.80;;;7.80;91.20;;;;;;4976917;28;20199;-64
2022/04/27 00:23:53;;;;;;;0.60;0.60;;;7.70;91.20;;;;;;4977762;28;20180;-62
2022/04/27 00:26:19;;;;;;;3.00;0.80;;;7.70;91.90;;;;;;4977024;28;20338;-63
2022/04/27 00:28:45;;;;;;;1.50;0.73;;;7.70;91.80;;;;;;4977124;28;20198;-63
2022/04/27 00:31:11;;;;;;;2.17;0.83;;;7.70;91.20;;;;;;4978100;28;20422;-64
2022/04/27 00:33:36;;;;;;;1.57;0.80;;;7.80;91.60;;;;;;4977545;28;20183;-63
2022/04/27 00:36:02;;;;;;;3.77;1.00;;;7.70;91.90;;;;;;4977072;28;20212;-64
2022/04/27 00:38:28;;;;;;;3.07;0.93;;;7.70;91.10;;;;;;4977544;28;20252;-66
2022/04/27 00:40:54;;;;;;;1.00;0.90;;;7.80;91.60;;;;;;4977602;28;20517;-66
2022/04/27 00:43:35;;;;;;;2.90;0.97;;;7.80;91.50;;;;;;4977337;28;20220;-66
2022/04/27 00:46:02;;;;;;;2.63;1.20;;;7.70;91.50;;;;;;4995429;28;20192;-64
2022/04/27 00:48:27;;;;;;;1.90;1.20;;;7.70;92.40;;;;;;4981495;28;20441;-65
2022/04/27 00:50:53;;;;;;;2.07;0.73;;;7.70;92.40;;;;;;4981839;28;20433;-65
2022/04/27 00:53:19;;;;;;;0.80;0.70;;;7.70;92.60;;;;;;4987537;28;20201;-65
2022/04/27 00:55:45;;;;;;;3.90;0.90;;;7.60;92.70;;;;;;4984702;28;20461;-65
2022/04/27 00:58:14;;;;;;;2.30;1.10;;;7.70;92.70;;;;;;4965257;28;20203;-63
2022/04/27 01:00:40;;;;;;;2.70;1.10;;;7.70;92.40;;;;;;4997491;28;20207;-63
2022/04/27 01:03:06;;;;;;;2.37;1.10;;;7.70;92.90;;;;;;4980571;28;20437;-63
2022/04/27 01:05:32;;;;;;;1.67;1.10;;;7.70;92.70;;;;;;4981303;28;20479;-64
2022/04/27 01:08:00;;;;;;;1.27;0.97;;;7.70;92.70;;;;;;4980958;28;20197;-64
2022/04/27 01:10:29;;;;;;;2.70;1.10;;;7.70;92.90;;;;;;4981754;28;20291;-64
2022/04/27 01:12:57;;;;;;;4.33;1.20;;;7.60;92.70;;;;;;4997854;28;20413;-65
2022/04/27 01:15:33;;;;;;;3.10;1.00;;;7.60;92.50;;;;;;4997083;28;20908;-64
2022/04/27 01:18:00;;;;;;;1.63;0.90;;;7.60;93.20;;;;;;4981224;28;20524;-63
2022/04/27 01:20:37;;;;;;;3.03;1.10;;;7.70;93.40;;;;;;4996688;28;20433;-64
2022/04/27 01:23:04;;;;;;;2.03;0.87;;;7.70;92.80;;;;;;4981230;28;20430;-64
2022/04/27 01:25:50;;;;;;;1.17;0.90;;;7.70;93.10;;;;;;4980863;28;20559;-64
2022/04/27 01:28:17;;;;;;;2.43;1.30;;;7.70;93.50;;;;;;4996989;28;20418;-64
2022/04/27 01:30:44;;;;;;;3.20;1.20;;;7.70;93.40;;;;;;4980485;28;20436;-64
2022/04/27 01:33:10;;;;;;;1.10;1.00;;;7.70;93.30;;;;;;4980930;28;20414;-64
2022/04/27 01:35:36;;;;;;;1.07;0.90;;;7.70;93.70;;;;;;4979871;28;20473;-64
2022/04/27 01:38:03;;;;;;;2.23;0.90;;;7.70;93.60;;;;;;4977688;28;20439;-64
2022/04/27 01:40:29;;;;;;;5.30;1.47;;;7.70;94.00;;;;;;4961706;28;20414;-64
2022/04/27 01:42:54;;;;;;;3.77;1.30;;;7.70;94.10;;;;;;4989038;28;20580;-64
2022/04/27 01:45:20;;;;;;;1.70;1.17;;;7.70;94.30;;;;;;4980530;28;20481;-64
2022/04/27 01:47:46;;;;;;;2.50;0.90;;;7.70;94.30;;;;;;4996763;28;20184;-64
2022/04/27 01:50:12;;;;;;;2.20;1.10;;;7.80;94.40;;;;;;4980355;28;20187;-63
2022/04/27 01:55:22;;;;;;;5.17;1.10;;;7.80;94.60;;;;;;5002693;28;20183;-63
2022/04/27 01:57:48;;;;;;;2.20;1.20;;;7.80;94.60;;;;;;4979626;28;20441;-64
2022/04/27 02:00:15;;;;;;;1.67;1.20;;;7.80;94.80;;;;;;4980553;28;20247;-64
2022/04/27 02:02:41;;;;;;;3.87;1.17;;;7.80;94.70;;;;;;4979790;28;20437;-66
2022/04/27 02:05:07;;;;;;;2.80;1.30;;;7.80;94.80;;;;;;4980379;28;20411;-66
2022/04/27 02:07:33;;;;;;;2.00;1.30;;;7.80;94.80;;;;;;4976591;28;20466;-64
2022/04/27 02:09:58;;;;;;;1.40;1.10;;;7.80;94.90;;;;;;4967076;28;20503;-63
2022/04/27 02:12:24;;;;;;;4.87;1.43;;;7.80;94.80;;;;;;4974229;28;20185;-63
2022/04/27 02:14:50;;;;;;;2.83;1.10;;;7.80;94.90;;;;;;4979649;28;20202;-65
2022/04/27 02:17:16;;;;;;;2.00;1.30;;;7.80;94.90;;;;;;4963411;28;20220;-64
2022/04/27 02:19:42;;;;;;;2.00;1.40;;;7.80;94.70;;;;;;4980142;28;20184;-64
2022/04/27 02:22:07;;;;;;;1.10;1.00;;;7.70;94.60;;;;;;4963720;28;20883;-64
2022/04/27 02:24:34;;;;;;;2.40;1.13;;;7.70;94.70;;;;;;4963331;28;20228;-63
2022/04/27 02:26:59;;;;;;;2.47;1.03;;;7.80;94.90;;;;;;4970196;28;20299;-64
2022/04/27 02:29:25;;;;;;;2.00;1.33;;;7.80;95.00;;;;;;4975567;28;20465;-64
2022/04/27 02:31:51;;;;;;;2.67;1.60;;;7.80;94.90;;;;;;4963139;28;20196;-65
2022/04/27 02:34:17;;;;;;;3.93;1.13;;;7.80;95.00;;;;;;4978427;28;20192;-65
2022/04/27 02:36:42;;;;;;;3.23;1.07;;;7.80;94.80;;;;;;4969875;28;20267;-65
2022/04/27 02:39:09;;;;;;;1.70;1.20;;;7.80;94.90;;;;;;4993618;28;20239;-64
2022/04/27 02:41:35;;;;;;;2.47;1.23;;;7.80;95.00;;;;;;4960372;28;20200;-64
2022/04/27 02:44:01;;;;;;;2.67;1.33;;;7.80;94.90;;;;;;4949905;28;20486;-63
2022/04/27 02:46:27;;;;;;;1.83;1.30;;;7.80;95.10;;;;;;4971100;28;20230;-64
2022/04/27 02:51:49;;;;;;;2.10;1.40;;;7.80;95.10;;;;;;4995982;28;20175;-66
2022/04/27 02:54:24;;;;;;;4.70;1.23;;;7.80;95.00;;;;;;4980355;28;20451;-67
2022/04/27 02:56:49;;;;;;;2.97;1.70;;;7.80;95.20;;;;;;4979221;28;20465;-67
2022/04/27 02:59:16;;;;;;;1.40;1.10;;;7.70;95.00;;;;;;4994621;28;20430;-66
2022/04/27 03:01:42;;;;;;;2.97;1.50;;;7.70;95.00;;;;;;4995842;28;20215;-66
2022/04/27 03:04:09;;;;;;;3.57;1.30;;;7.80;95.00;;;;;;4978545;28;20472;-66
2022/04/27 03:06:35;;;;;;;1.33;1.10;;;7.70;94.90;;;;;;4965463;28;20208;-64
2022/04/27 03:09:01;;;;;;;1.63;1.40;;;7.70;95.00;;;;;;4963137;28;20482;-65
2022/04/27 03:11:26;;;;;;;4.20;1.60;;;7.80;95.20;;;;;;4973897;28;20437;-65
2022/04/27 03:13:52;;;;;;;1.60;0.97;;;7.80;95.20;;;;;;4957884;28;20436;-66
2022/04/27 03:16:18;;;;;;;3.17;2.00;;;7.80;95.20;;;;;;4991202;28;20231;-66
2022/04/27 03:18:44;;;;;;;2.53;1.90;;;7.70;95.10;;;;;;4979281;28;20223;-66
2022/04/27 03:21:11;;;;;;;2.57;1.73;;;7.70;95.00;;;;;;4988471;28;20197;-65
2022/04/27 03:23:36;;;;;;;2.43;1.83;;;7.80;95.10;;;;;;4973241;28;20427;-65
2022/04/27 03:26:02;;;;;;;3.67;2.83;;;7.80;95.10;;;;;;4964418;28;20489;-65
2022/04/27 03:28:28;;;;;;;3.30;2.03;;;7.80;95.20;;;;;;4959654;28;20320;-65
2022/04/27 03:30:55;;;;;;;3.83;2.27;;;7.80;95.20;;;;;;4965191;28;20196;-65
2022/04/27 03:33:21;;;;;;;3.30;2.20;;;7.80;95.20;;;;;;4985830;28;20521;-66
2022/04/27 03:35:47;;;;;;;3.13;2.50;;;7.80;94.90;;;;;;4978853;28;20484;-65
2022/04/27 03:38:14;;;;;;;3.50;2.60;;;7.80;94.90;;;;;;4978166;28;20504;-65
2022/04/27 03:40:41;;;;;;;3.43;1.90;;;7.80;94.80;;;;;;4995007;28;20189;-65
2022/04/27 03:43:07;;;;;;;4.10;2.60;;;7.80;95.10;;;;;;4994483;28;20440;-65
2022/04/27 03:45:33;;;;;;;1.60;1.50;;;7.80;95.20;;;;;;4978307;28;20445;-65
2022/04/27 03:47:59;;;;;;;3.80;2.17;;;7.80;95.30;;;;;;4978710;28;20426;-65
2022/04/27 03:50:25;;;;;;;3.70;2.50;;;7.80;95.30;;;;;;4978510;28;20176;-65
2022/04/27 03:52:51;;;;;;;3.90;2.60;;;7.80;95.10;;;;;;4977656;28;20453;-65
2022/04/27 03:55:17;;;;;;;4.33;2.83;;;7.80;95.20;;;;;;4978584;28;20258;-64
2022/04/27 03:57:43;;;;;;;3.10;2.20;;;7.80;95.00;;;;;;4977966;28;20466;-63
2022/04/27 04:00:10;;;;;;;3.43;2.90;;;7.80;95.00;;;;;;4972313;28;20232;-64
2022/04/27 04:02:37;;;;;;;3.87;3.23;;;7.80;95.10;;;;;;4950261;28;20204;-64
2022/04/27 04:05:03;;;;;;;4.63;3.53;;;7.80;95.20;;;;;;4970476;28;20490;-63
2022/04/27 04:07:29;;;;;;;4.83;3.37;;;7.80;94.90;;;;;;4958883;28;20817;-64
2022/04/27 04:09:55;;;;;;;8.20;4.37;;;7.80;95.10;;;;;;4970568;28;20447;-62
2022/04/27 04:12:21;;;;;;;5.33;3.43;;;7.80;95.10;;;;;;4971186;28;20208;-65
2022/04/27 04:14:46;;;;;;;4.20;3.67;;;7.80;95.10;;;;;;4987478;28;20188;-67
2022/04/27 04:17:12;;;;;;;5.40;3.90;;;7.80;95.20;;;;;;4972391;28;20231;-64
2022/04/27 04:19:39;;;;;;;5.00;4.07;;;7.80;94.90;;;;;;4965996;28;20195;-65
2022/04/27 04:22:05;;;;;;;4.20;3.70;;;7.80;95.10;;;;;;4977277;28;20199;-64
2022/04/27 04:24:31;;;;;;;4.90;3.30;;;7.80;95.20;;;;;;4961467;28;20440;-63
2022/04/27 04:29:41;;;;;;;7.73;3.30;;;7.80;95.20;;;;;;4983624;28;20208;-63
2022/04/27 04:32:07;;;;;;;7.27;3.97;;;7.80;95.30;;;;;;4970845;28;20454;-63
2022/04/27 04:34:33;;;;;;;5.23;3.97;;;7.80;95.10;;;;;;4960560;28;20297;-63
2022/04/27 04:36:59;;;;;;;6.53;4.60;;;7.90;95.30;;;;;;4967108;28;20577;-63
2022/04/27 04:39:24;;;;;;;7.53;4.43;;;7.90;95.30;;;;;;4978353;28;20207;-63
2022/04/27 04:41:50;;;;;;;5.30;4.40;;;7.90;95.20;;;;;;4976022;28;20207;-63
2022/04/27 04:44:15;;;;;;;6.57;4.27;;;8.00;95.30;;;;;;4956208;28;20224;-63
2022/04/27 04:46:41;;;;;;;6.83;5.23;;;8.00;95.30;;;;;;4971809;28;20227;-64
2022/04/27 04:49:07;;;;;;;7.30;5.00;;;8.00;95.40;;;;;;4991387;28;20272;-64
2022/04/27 04:51:33;;;;;;;6.00;4.63;;;8.00;95.40;;;;;;4969039;28;20204;-63
2022/04/27 04:53:59;;;;;;;6.00;3.83;;;8.10;95.50;;;;;;4963420;28;20193;-64
2022/04/27 04:56:25;;;;;;;6.60;4.13;;;8.10;95.30;;;;;;4980622;28;20499;-64
2022/04/27 04:58:50;;;;;;;5.17;3.33;;;8.20;95.20;;;;;;4981498;28;20191;-64
2022/04/27 05:01:16;;;;;;;5.10;4.60;;;8.20;95.00;;;;;;4985483;28;20188;-64
2022/04/27 05:03:42;;;;;;;4.40;4.00;;;8.20;95.20;;;;;;4989111;28;20193;-64
2022/04/27 05:06:07;;;;;;;5.07;4.17;;;8.20;95.20;;;;;;4971410;28;20205;-63
2022/04/27 05:08:33;;;;;;;7.83;4.33;;;8.30;95.20;;;;;;4978947;28;20222;-65
2022/04/27 05:10:58;;;;;;;6.07;3.40;;;8.30;95.30;;;;;;4979362;28;20212;-63
2022/04/27 05:13:24;;;;;;;6.53;3.93;;;8.30;95.00;;;;;;4963382;28;20212;-63
2022/04/27 05:15:50;;;;;;;5.53;3.93;;;8.30;95.10;;;;;;4964313;28;20232;-64
2022/04/27 05:18:19;;;;;;;5.63;4.53;;;8.30;95.10;;;;;;4954460;28;20185;-64
2022/04/27 05:20:45;;;;;;;3.90;3.33;;;8.30;95.20;;;;;;4960770;28;20197;-64
2022/04/27 05:23:14;;;;;;;4.17;3.73;;;8.30;95.20;;;;;;4972052;28;20427;-63
2022/04/27 05:25:40;;;;;;;5.17;4.20;;;8.30;95.20;;;;;;4964570;28;20498;-64
2022/04/27 05:28:06;;;;;;;7.63;4.30;;;8.30;95.30;;;;;;4977799;28;20438;-64
2022/04/27 05:33:17;;;;;;;4.40;3.33;;;8.30;95.20;;;;;;4978582;28;20445;-64
2022/04/27 05:35:43;;;;;;;4.70;4.20;;;8.40;95.20;;;;;;4980177;28;20484;-65
2022/04/27 05:38:10;;;;;;;6.83;4.40;;;8.30;94.90;;;;;;4973688;28;20445;-65
2022/04/27 05:40:37;;;;;;;5.57;4.27;;;8.30;95.10;;;;;;4964311;28;20452;-63
2022/04/27 05:43:06;;;;;;;4.53;4.07;;;8.30;95.20;;;;;;4960173;28;20434;-63
2022/04/27 05:45:32;;;;;;;5.03;3.30;;;8.30;95.30;;;;;;4979205;28;20481;-63
2022/04/27 05:47:58;;;;;;;6.37;4.20;;;8.40;95.20;;;;;;4994541;28;20457;-64
2022/04/27 05:50:24;;;;;;;5.57;4.07;;;8.30;95.30;;;;;;4976120;28;20227;-63
2022/04/27 05:52:58;;;;;;;6.83;4.60;;;8.40;95.40;;;;;;4978410;28;20462;-64
2022/04/27 05:55:24;;;;;;;7.17;4.43;;;8.40;95.30;;;;;;4994003;28;20199;-63
2022/04/27 05:57:50;;;;;;;6.17;4.80;;;8.40;95.20;;;;;;4978473;28;20421;-63
2022/04/27 06:00:17;;;;;;;6.93;5.00;;;8.40;95.30;;;;;;4960350;28;20467;-62
2022/04/27 06:02:44;;;;;;;7.83;4.67;;;8.40;95.40;;;;;;4975184;28;20411;-62
2022/04/27 06:05:10;;;;;;;8.77;4.87;;;8.50;95.40;;;;;;4962746;28;20437;-63
2022/04/27 06:07:36;;;;;;;5.07;3.73;;;8.40;95.30;;;;;;4969662;28;20439;-63
2022/04/27 06:10:07;;;;;;;5.47;4.50;;;8.50;95.40;;;;;;4974174;28;20473;-63
2022/04/27 06:12:37;;;;;;;6.60;4.57;;;8.50;95.40;;;;;;5001037;28;20253;-63
2022/04/27 06:15:11;;;;;;;5.47;4.23;;;8.50;95.40;;;;;;5013122;28;20421;-64
2022/04/27 06:17:37;;;;;;;8.00;4.40;;;8.50;95.50;;;;;;5007490;28;20591;-64
2022/04/27 06:20:03;;;;;;;5.27;4.17;;;8.60;95.40;;;;;;4985404;28;20437;-64
2022/04/27 06:22:29;;;;;;;7.07;3.80;;;8.60;95.30;;;;;;5014516;28;20220;-63
2022/04/27 06:24:54;;;;;;;4.83;3.90;;;8.50;95.20;;;;;;5014204;28;20496;-64
2022/04/27 06:27:20;;;;;;;6.47;4.10;;;8.60;95.40;;;;;;4986329;28;20283;-63
2022/04/27 06:29:46;;;;;;;4.80;2.43;;;8.50;94.90;;;;;;4978413;28;20199;-64
2022/04/27 06:32:12;;;;;;;7.27;3.60;;;8.60;95.10;;;;;;4989912;28;20442;-64
2022/04/27 06:34:38;;;;;;;9.90;4.67;;;8.60;95.20;;;;;;4984765;28;20211;-63
2022/04/27 06:37:04;;;;;;;5.37;3.60;;;8.60;94.90;;;;;;4976756;28;20269;-63
2022/04/27 06:39:29;;;;;;;5.60;4.10;;;8.60;95.00;;;;;;4975503;28;20201;-63
2022/04/27 06:41:55;;;;;;;8.00;4.17;;;8.70;95.20;;;;;;4977491;28;20228;-63
2022/04/27 06:44:21;;;;;;;5.67;3.93;;;8.60;94.90;;;;;;4961239;28;20220;-63
2022/04/27 06:46:46;;;;;;;7.23;5.30;;;8.70;95.00;;;;;;4960851;28;20200;-63
2022/04/27 06:49:12;;;;;;;4.13;3.50;;;8.70;95.00;;;;;;4965175;28;20205;-63
2022/04/27 06:51:37;;;;;;;6.07;2.90;;;8.70;95.00;;;;;;4957955;28;20204;-63
2022/04/27 06:54:04;;;;;;;4.77;3.07;;;8.70;94.10;;;;;;4973831;28;20197;-63
2022/04/27 06:56:30;;;;;;;3.47;3.00;;;8.70;94.20;;;;;;4958586;28;20309;-64
2022/04/27 06:58:55;;;;;;;5.33;3.73;;;8.70;93.60;;;;;;4962566;28;20439;-64
2022/04/27 07:01:21;;;;;;;4.40;2.77;;;8.70;94.40;;;;;;4980139;28;20200;-64
2022/04/27 07:03:48;;;;;;;3.97;2.83;;;8.70;94.60;;;;;;4979875;28;20192;-64
2022/04/27 07:06:13;;;;;;;5.33;3.33;;;8.80;94.40;;;;;;4979581;28;20210;-64
2022/04/27 07:08:39;;;;;;;3.80;3.30;;;8.70;93.10;;;;;;4977050;28;20442;-64
2022/04/27 07:11:05;;;;;;;4.67;3.13;;;8.70;93.40;;;;;;4976813;28;20192;-63
2022/04/27 07:13:31;;;;;;;5.23;3.10;;;8.80;93.80;;;;;;4977715;28;20220;-63
2022/04/27 07:16:00;;;;;;;3.43;3.07;;;8.70;92.70;;;;;;4975991;28;20223;-63
2022/04/27 07:18:28;;;;;;;3.40;3.10;;;8.70;93.30;;;;;;4967510;28;20236;-64
2022/04/27 07:20:53;;;;;;;3.77;3.13;;;8.80;94.00;;;;;;5001582;28;20414;-65
2022/04/27 07:23:19;;;;;;;6.57;4.10;;;8.80;94.40;;;;;;4967791;28;20435;-63
2022/04/27 07:25:45;;;;;;;5.50;4.03;;;8.90;94.70;;;;;;4957435;28;20327;-64
2022/04/27 07:28:10;;;;;;;6.27;4.07;;;8.90;94.80;;;;;;4960498;28;20200;-63
2022/04/27 07:30:36;;;;;;;5.23;3.80;;;9.00;94.70;;;;;;4975771;28;20202;-63
2022/04/27 07:33:02;;;;;;;5.03;3.63;;;9.00;94.20;;;;;;4972609;28;20192;-65
2022/04/27 07:35:28;;;;;;;3.13;2.83;;;9.00;94.50;;;;;;4961488;28;20219;-63
2022/04/27 07:37:54;;;;;;;4.90;4.37;;;9.10;94.80;;;;;;4961026;28;20435;-63
2022/04/27 07:40:19;;;;;;;4.50;4.00;;;9.20;94.90;;;;;;4953670;28;20554;-63
2022/04/27 07:42:45;;;;;;;5.83;3.90;;;9.20;94.40;;;;;;4973191;28;20196;-63
2022/04/27 07:45:10;;;;;;;4.53;3.77;;;9.10;93.60;;;;;;4975815;28;20191;-63
2022/04/27 07:47:45;;;;;;;3.73;3.43;;;9.10;94.10;;;;;;4975022;28;20188;-62
2022/04/27 07:50:15;;;;;;;5.10;3.80;;;9.10;94.20;;;;;;4992063;28;20213;-63
2022/04/27 07:52:42;;;;;;;3.67;3.07;;;9.10;94.50;;;;;;4991250;28;20454;-63
2022/04/27 07:55:08;;;;;;;5.77;4.30;;;9.20;94.80;;;;;;4976519;28;20418;-64
2022/04/27 07:57:35;;;;;;;4.40;3.77;;;9.30;94.70;;;;;;4976131;28;20469;-62
2022/04/27 08:00:04;;;;;;;5.43;4.90;;;9.20;93.30;;;;;;4994462;28;20410;-62
2022/04/27 08:02:30;;;;;;;4.50;4.10;;;9.30;94.40;;;;;;4994976;28;20486;-62
2022/04/27 08:04:55;;;;;;;6.77;4.23;;;9.30;94.70;;;;;;4977090;28;20417;-63
2022/04/27 08:07:21;;;;;;;5.50;4.47;;;9.30;94.70;;;;;;4974747;28;20200;-63
2022/04/27 08:09:46;;;;;;;5.43;4.23;;;9.30;94.80;;;;;;4975221;28;20184;-63
2022/04/27 08:12:12;;;;;;;4.70;3.40;;;9.40;95.00;;;;;;4960289;28;20235;-63
2022/04/27 08:14:38;;;;;;;5.73;4.73;;;9.40;95.00;;;;;;4956180;28;20193;-63
2022/04/27 08:17:04;;;;;;;4.83;4.33;;;9.50;95.00;;;;;;4955463;28;20229;-63
2022/04/27 08:19:30;;;;;;;4.07;3.67;;;9.50;94.80;;;;;;4960888;28;20195;-63
2022/04/27 08:21:55;;;;;;;9.33;4.83;;;9.50;95.00;;;;;;4983629;28;20200;-63
2022/04/27 08:24:22;;;;;;;5.03;4.17;;;9.60;95.20;;;;;;4975199;28;20191;-63
2022/04/27 08:26:48;;;;;;;3.73;3.43;;;9.60;95.10;;;;;;4966722;28;20214;-63
2022/04/27 08:29:14;;;;;;;6.53;4.30;;;9.60;94.10;;;;;;4955902;28;20434;-62
2022/04/27 08:31:40;;;;;;;6.83;4.03;;;9.50;92.80;;;;;;4955936;28;20449;-62
2022/04/27 08:34:06;;;;;;;6.50;4.07;;;9.60;93.90;;;;;;4988004;28;20482;-63
2022/04/27 08:36:32;;;;;;;4.93;3.77;;;9.60;94.30;;;;;;4965239;28;20478;-63
2022/04/27 08:38:59;;;;;;;6.37;5.00;;;9.70;93.60;;;;;;4972210;28;20189;-63
2022/04/27 08:41:26;;;;;;;5.93;4.60;;;9.70;93.90;;;;;;4984896;28;20433;-62
2022/04/27 08:43:52;;;;;;;4.67;4.10;;;9.60;92.70;;;;;;4998034;28;20445;-63
2022/04/27 08:46:17;;;;;;;6.43;4.03;;;9.60;93.80;;;;;;4975229;28;20483;-63
2022/04/27 08:48:52;;;;;;;4.20;3.77;;;9.60;93.40;;;;;;4975550;28;20294;-63
2022/04/27 08:51:18;;;;;;;5.97;4.30;;;9.60;93.90;;;;;;4973702;28;20203;-64
2022/04/27 08:53:44;;;;;;;4.53;3.03;;;9.70;93.60;;;;;;4975989;28;20449;-64
2022/04/27 08:56:10;;;;;;;5.77;4.60;;;9.60;93.80;;;;;;4974536;28;20219;-64
2022/04/27 08:58:36;;;;;;;4.23;3.37;;;9.70;94.00;;;;;;4973980;28;20438;-63
2022/04/27 09:01:02;;;;;;;5.23;4.13;;;9.70;94.30;;;;;;4974479;28;20426;-63
2022/04/27 09:03:36;;;;;;;6.50;4.30;;;9.80;94.50;;;;;;4988201;28;20285;-63
2022/04/27 09:06:13;;;;;;;4.17;3.77;;;9.80;94.60;;;;;;4966717;28;20447;-63
2022/04/27 09:08:47;;;;;;;5.27;4.77;;;9.80;94.20;;;;;;4978560;28;20937;-62
2022/04/27 09:11:39;;;;;;;8.00;4.10;;;9.80;93.60;;;;;;4994860;28;20445;-63
2022/04/27 09:14:07;;;;;;;5.10;4.10;;;9.80;94.00;;;;;;4976636;28;20421;-63
2022/04/27 09:22:11;;;;;;;5.40;4.17;;;9.90;93.40;;;;;;5002152;28;20459;-63
2022/04/27 09:25:06;;;;;;;7.17;4.00;;;9.90;90.60;;;;;;4994119;28;20501;-64
2022/04/27 09:27:32;;;;;;;4.77;4.00;;;9.90;92.30;;;;;;4999324;28;20488;-63
2022/04/27 09:30:02;;;;;;;7.43;4.77;;;9.90;90.80;;;;;;4997549;28;20515;-64
2022/04/27 09:32:28;;;;;;;5.17;4.20;;;10.00;92.90;;;;;;5014584;28;20342;-63
2022/04/27 09:34:55;;;;;;;7.77;5.20;;;10.00;91.90;;;;;;4982838;28;20441;-63
2022/04/27 09:37:24;;;;;;;5.37;4.80;;;10.10;92.40;;;;;;4961572;28;20481;-63
2022/04/27 09:40:06;;;;;;;5.57;4.67;;;10.20;93.00;;;;;;4995282;28;20437;-63
2022/04/27 09:42:33;;;;;;;7.73;4.73;;;10.30;93.30;;;;;;4994523;28;20437;-63
2022/04/27 09:45:14;;;;;;;5.77;5.17;;;10.30;92.90;;;;;;4977084;28;20442;-63
2022/04/27 09:47:53;;;;;;;7.80;5.43;;;10.30;92.70;;;;;;4993782;28;20425;-63
2022/04/27 09:50:19;;;;;;;5.87;5.07;;;10.30;91.70;;;;;;4995668;28;20473;-62
2022/04/27 09:52:45;;;;;;;5.93;5.43;;;10.50;92.90;;;;;;4978789;28;20465;-63
2022/04/27 09:55:11;;;;;;;6.90;5.73;;;10.50;92.00;;;;;;4978377;28;20192;-63
2022/04/27 09:57:38;;;;;;;5.13;4.63;;;10.50;92.30;;;;;;4980885;28;20220;-64
2022/04/27 10:00:05;;;;;;;8.40;5.50;;;10.40;91.50;;;;;;4997211;28;20192;-63
2022/04/27 10:02:32;;;;;;;6.70;4.73;;;10.40;92.20;;;;;;4993251;28;20188;-63
2022/04/27 10:05:02;;;;;;;3.73;3.37;;;10.50;91.60;;;;;;5014637;28;20183;-63
2022/04/27 10:07:32;;;;;;;3.30;2.50;;;10.50;90.80;;;;;;5016040;28;20188;-63
2022/04/27 10:09:59;;;;;;;4.63;2.50;;;10.40;85.40;;;;;;4997619;28;20477;-63
2022/04/27 10:12:25;;;;;;;3.27;2.63;;;10.30;86.40;;;;;;4980283;28;20444;-63
2022/04/27 10:14:50;;;;;;;3.40;3.10;;;10.30;87.00;;;;;;4995725;28;20208;-63
2022/04/27 10:17:16;;;;;;;2.87;2.60;;;10.40;88.90;;;;;;4996075;28;20207;-63
2022/04/27 10:19:50;;;;;;;2.93;2.43;;;10.30;85.00;;;;;;4994586;28;20192;-64
2022/04/27 10:22:32;;;;;;;3.57;2.87;;;10.40;86.70;;;;;;4995292;28;20426;-62
2022/04/27 10:25:09;;;;;;;2.93;2.53;;;10.40;85.10;;;;;;5008386;28;20224;-64
2022/04/27 10:27:39;;;;;;;3.27;2.60;;;10.40;86.60;;;;;;4997933;28;20278;-63
2022/04/27 10:30:07;;;;;;;3.27;2.97;;;10.40;85.50;;;;;;4996256;28;20421;-63
2022/04/27 10:32:43;;;;;;;3.50;3.00;;;10.50;88.70;;;;;;4995728;28;20188;-63
2022/04/27 10:35:12;;;;;;;4.60;4.20;;;10.50;86.80;;;;;;4996271;28;20184;-64
2022/04/27 10:37:58;;;;;;;3.10;2.80;;;10.70;90.20;;;;;;4996612;28;20212;-64
2022/04/27 10:40:40;;;;;;;4.13;3.37;;;10.70;86.70;;;;;;4995148;28;20297;-64
2022/04/27 10:43:09;;;;;;;5.03;3.27;;;10.80;88.60;;;;;;4995095;28;20192;-65
2022/04/27 10:45:39;;;;;;;3.40;3.10;;;10.90;88.10;;;;;;4995808;28;20185;-64
2022/04/27 10:48:07;;;;;;;4.73;3.73;;;10.90;87.10;;;;;;4996523;28;20200;-64
2022/04/27 10:50:37;;;;;;;3.20;2.90;;;11.10;88.90;;;;;;4995806;28;20191;-64
2022/04/27 10:53:15;;;;;;;6.03;3.33;;;11.20;88.20;;;;;;4979032;28;20215;-65
2022/04/27 10:55:48;;;;;;;3.60;3.10;;;11.30;87.00;;;;;;4995300;28;20188;-65
2022/04/27 10:58:37;;;;;;;3.30;3.00;;;11.30;85.60;;;;;;4979916;28;20219;-66
2022/04/27 11:01:11;;;;;;;3.00;2.77;;;11.40;83.70;;;;;;4995355;28;20243;-65
2022/04/27 11:03:38;;;;;;;4.47;3.07;;;11.50;85.70;;;;;;4995464;28;20227;-66
2022/04/27 11:06:10;;;;;;;3.93;2.97;;;11.50;85.90;;;;;;4991347;28;20197;-63
2022/04/27 11:09:08;;;;;;;3.57;3.27;;;11.50;83.70;;;;;;4994762;28;20192;-65
2022/04/27 11:11:52;;;;;;;3.27;2.90;;;11.50;85.30;;;;;;4994943;28;20204;-65
2022/04/27 11:14:20;;;;;;;3.43;2.93;;;11.50;83.60;;;;;;4995211;28;20188;-65
2022/04/27 11:16:50;;;;;;;4.43;3.63;;;11.50;86.50;;;;;;4995568;28;20204;-65
2022/04/27 11:19:17;;;;;;;3.67;3.30;;;11.70;87.80;;;;;;4979092;28;20271;-65
2022/04/27 11:21:43;;;;;;;6.33;3.43;;;11.80;85.50;;;;;;4974423;28;20192;-65
2022/04/27 11:24:11;;;;;;;14.77;3.73;;;11.80;84.80;;;;;;4977898;28;20185;-65
2022/04/27 11:26:47;;;;;;;3.77;2.93;;;11.80;81.90;;;;;;4994656;28;20231;-65
2022/04/27 11:29:14;;;;;;;4.63;3.67;;;11.80;81.20;;;;;;4978572;28;20191;-65
2022/04/27 11:31:42;;;;;;;5.77;4.13;;;11.80;79.90;;;;;;4978646;28;20192;-65
2022/04/27 11:34:27;;;;;;;4.27;3.23;;;11.70;84.80;;;;;;4994780;28;20219;-66
2022/04/27 11:36:54;;;;;;;3.90;3.50;;;11.80;83.30;;;;;;4994641;28;20266;-66
2022/04/27 11:39:25;;;;;;;4.83;3.60;;;11.90;86.40;;;;;;4977581;28;20255;-65
2022/04/27 11:42:01;;;;;;;4.27;3.70;;;12.00;85.40;;;;;;4977933;28;20194;-65
2022/04/27 11:44:34;;;;;;;3.80;3.50;;;12.20;85.50;;;;;;4978453;28;20192;-65
2022/04/27 11:47:00;;;;;;;3.53;3.17;;;12.20;83.40;;;;;;4979252;28;20180;-66
2022/04/27 11:49:26;;;;;;;3.90;3.50;;;12.10;83.20;;;;;;4994209;28;20196;-65
2022/04/27 11:51:51;;;;;;;4.23;3.77;;;12.00;80.50;;;;;;4993775;28;20200;-65
2022/04/27 11:54:28;;;;;;;4.20;3.80;;;11.90;83.40;;;;;;4978100;28;20188;-65
2022/04/27 11:57:00;;;;;;;4.67;4.20;;;11.80;80.50;;;;;;4978831;28;20203;-66
2022/04/27 11:59:41;;;;;;;4.20;3.80;;;11.80;82.00;;;;;;4978304;28;20195;-65
2022/04/27 12:02:09;;;;;;;5.60;4.27;;;11.80;83.20;;;;;;4995453;28;20197;-66
2022/04/27 12:04:38;;;;;;;7.57;3.70;;;11.80;83.60;;;;;;4994409;28;20200;-65
2022/04/27 12:07:14;;;;;;;2.97;2.67;;;11.80;84.60;;;;;;5014122;28;20191;-65
2022/04/27 12:09:40;;;;;;;3.57;3.27;;;11.70;82.50;;;;;;5013800;28;20186;-65
2022/04/27 12:12:08;;;;;;;4.27;3.40;;;11.70;84.90;;;;;;4997711;28;20183;-65
2022/04/27 12:14:35;;;;;;;5.40;3.60;;;11.60;84.30;;;;;;4984565;28;20192;-65
2022/04/27 12:17:00;;;;;;;3.70;3.40;;;11.60;83.10;;;;;;4977763;28;20244;-67
2022/04/27 12:19:29;;;;;;;5.17;3.50;;;11.60;84.50;;;;;;4977410;28;20212;-65
2022/04/27 12:22:15;;;;;;;4.33;3.80;;;11.50;82.60;;;;;;4978104;28;20191;-65
2022/04/27 12:24:47;;;;;;;5.03;4.13;;;11.60;84.90;;;;;;4977375;28;20235;-66
2022/04/27 12:27:20;;;;;;;5.13;4.43;;;11.70;86.60;;;;;;4978074;28;20184;-66
2022/04/27 12:29:46;;;;;;;4.17;3.67;;;11.80;85.50;;;;;;4977916;28;20212;-65
2022/04/27 12:32:12;;;;;;;3.23;2.93;;;11.80;84.00;;;;;;4994089;28;20207;-65
2022/04/27 12:37:31;;;;;;;3.77;3.37;;;11.80;85.20;;;;;;4993054;28;20215;-66
2022/04/27 12:40:12;;;;;;;3.30;3.00;;;11.70;83.70;;;;;;4975884;28;20200;-64
2022/04/27 12:43:06;;;;;;;3.13;2.83;;;11.70;83.10;;;;;;4989454;28;20181;-68
2022/04/27 12:45:34;;;;;;;4.17;3.30;;;11.60;83.70;;;;;;4980859;28;20193;-64
2022/04/27 12:48:00;;;;;;;3.47;2.93;;;11.70;85.80;;;;;;4983353;28;20192;-66
2022/04/27 12:50:26;;;;;;;4.07;3.20;;;11.80;87.80;;;;;;4972355;28;20189;-66
2022/04/27 12:53:09;;;;;;;4.47;3.47;;;11.90;87.70;;;;;;4966301;28;20223;-65
2022/04/27 12:55:36;;;;;;;3.53;3.20;;;11.90;83.90;;;;;;5006454;28;20388;-65
2022/04/27 12:58:03;;;;;;;4.93;3.53;;;11.80;82.50;;;;;;4992382;28;20238;-64
2022/04/27 13:00:41;;;;;;;5.97;3.40;;;11.90;86.60;;;;;;4982872;28;20197;-65
2022/04/27 13:03:10;;;;;;;3.57;3.27;;;11.90;84.30;;;;;;5001255;28;20181;-65
2022/04/27 13:05:37;;;;;;;4.63;3.87;;;11.90;85.90;;;;;;4994319;28;20192;-67
2022/04/27 13:08:05;;;;;;;4.93;3.50;;;11.90;85.90;;;;;;5013369;28;20231;-66
2022/04/27 13:13:19;;;;;;;3.73;3.43;;;11.90;86.60;;;;;;5011942;28;20179;-67
2022/04/27 13:15:45;;;;;;;5.37;4.10;;;11.90;86.80;;;;;;4992967;28;20236;-66
2022/04/27 13:18:17;;;;;;;6.53;4.40;;;11.90;87.60;;;;;;4984960;28;20193;-64
2022/04/27 13:20:44;;;;;;;5.30;3.70;;;11.90;88.50;;;;;;4973758;28;20193;-65